sensor_id;sensor_type;location;lat;lon;timestamp;pressure;altitude;pressure_sealevel;temperature;humidity
68873;BME280;55907;50.806;12.882;2023-12-20T00:04:57;969.6;;;4.5;99.5
68873;BME280;55907;50.806;12.882;2023-12-20T00:07:57;969.6;;;4.4;99.6
68873;BME280;55907;50.806;12.882;2023-12-20T00:17:00;969.6;;;4.5;98.9
68873;BME280;55907;50.806;12.882;2023-12-20T00:20:01;969.4;;;4.4;99.2
68873;BME280;55907;50.806;12.882;2023-12-20T00:23:02;969.4;;;4.3;99.2
68873;BME280;55907;50.806;12.882;2023-12-20T00:26:03;969.4;;;4.3;99.9
68873;BME280;55907;50.806;12.882;2023-12-20T00:32:04;969.4;;;4.4;99.7
68873;BME280;55907;50.806;12.882;2023-12-20T00:35:05;969.3;;;4.4;99.9
68873;BME280;55907;50.806;12.882;2023-12-20T00:44:07;969.3;;;4.3;99.5
68873;BME280;55907;50.806;12.882;2023-12-20T00:47:08;969.2;;;4.3;100.0
68873;BME280;55907;50.806;12.882;2023-12-20T00:50:09;969.2;;;4.2;100.0
68873;BME280;55907;50.806;12.882;2023-12-20T00:56:11;969.2;;;4.2;100.0
68873;BME280;55907;50.806;12.882;2023-12-20T00:59:11;969.2;;;4.2;100.0
68873;BME280;55907;50.806;12.882;2023-12-20T01:05:13;969.1;;;4.3;100.0
68873;BME280;55907;50.806;12.882;2023-12-20T01:08:14;969.1;;;4.3;99.2
68873;BME280;55907;50.806;12.882;2023-12-20T01:11:15;969.1;;;4.3;98.9
68873;BME280;55907;50.806;12.882;2023-12-20T01:14:16;969.1;;;4.4;99.1
68873;BME280;55907;50.806;12.882;2023-12-20T01:17:16;969.1;;;4.3;98.5
68873;BME280;55907;50.806;12.882;2023-12-20T01:20:17;969.0;;;4.2;98.7
68873;BME280;55907;50.806;12.882;2023-12-20T01:26:19;969.1;;;4.2;100.0
68873;BME280;55907;50.806;12.882;2023-12-20T01:29:20;969.0;;;4.1;100.0
68873;BME280;55907;50.806;12.882;2023-12-20T01:35:22;969.1;;;4.1;100.0
68873;BME280;55907;50.806;12.882;2023-12-20T01:38:22;969.0;;;4.0;100.0
68873;BME280;55907;50.806;12.882;2023-12-20T01:41:23;969.0;;;4.1;100.0
68873;BME280;55907;50.806;12.882;2023-12-20T01:44:24;969.0;;;4.0;100.0
68873;BME280;55907;50.806;12.882;2023-12-20T01:47:25;968.9;;;4.1;100.0
68873;BME280;55907;50.806;12.882;2023-12-20T01:50:26;968.9;;;4.0;100.0
68873;BME280;55907;50.806;12.882;2023-12-20T01:53:27;968.9;;;4.2;99.3
68873;BME280;55907;50.806;12.882;2023-12-20T01:56:28;968.8;;;4.2;98.9
68873;BME280;55907;50.806;12.882;2023-12-20T02:05:30;968.8;;;4.1;98.9
68873;BME280;55907;50.806;12.882;2023-12-20T02:08:31;968.8;;;4.2;98.5
68873;BME280;55907;50.806;12.882;2023-12-20T02:17:33;968.6;;;4.2;97.8
68873;BME280;55907;50.806;12.882;2023-12-20T02:20:34;968.6;;;4.2;97.7
68873;BME280;55907;50.806;12.882;2023-12-20T02:23:35;968.6;;;4.2;97.5
68873;BME280;55907;50.806;12.882;2023-12-20T02:26:36;968.7;;;4.2;98.4
68873;BME280;55907;50.806;12.882;2023-12-20T02:29:36;968.7;;;4.1;97.9
68873;BME280;55907;50.806;12.882;2023-12-20T02:32:37;968.6;;;4.1;98.0
68873;BME280;55907;50.806;12.882;2023-12-20T02:38:39;968.6;;;4.1;97.8
68873;BME280;55907;50.806;12.882;2023-12-20T02:41:40;968.4;;;4.2;98.1
68873;BME280;55907;50.806;12.882;2023-12-20T02:44:40;968.5;;;4.2;97.6
68873;BME280;55907;50.806;12.882;2023-12-20T02:50:42;968.5;;;4.2;97.6
68873;BME280;55907;50.806;12.882;2023-12-20T02:53:43;968.5;;;4.1;97.6
68873;BME280;55907;50.806;12.882;2023-12-20T02:56:44;968.4;;;4.2;97.5
68873;BME280;55907;50.806;12.882;2023-12-20T02:59:45;968.6;;;4.3;97.5
68873;BME280;55907;50.806;12.882;2023-12-20T03:02:45;968.5;;;4.2;97.4
68873;BME280;55907;50.806;12.882;2023-12-20T03:05:46;968.4;;;4.2;97.4
68873;BME280;55907;50.806;12.882;2023-12-20T03:08:47;968.4;;;4.2;97.1
68873;BME280;55907;50.806;12.882;2023-12-20T03:11:48;968.4;;;4.2;97.2
68873;BME280;55907;50.806;12.882;2023-12-20T03:17:50;968.3;;;4.2;97.1
68873;BME280;55907;50.806;12.882;2023-12-20T03:29:53;968.4;;;4.2;97.3
68873;BME280;55907;50.806;12.882;2023-12-20T03:32:54;968.3;;;4.2;97.0
68873;BME280;55907;50.806;12.882;2023-12-20T03:38:55;968.2;;;4.2;97.2
68873;BME280;55907;50.806;12.882;2023-12-20T03:41:56;968.3;;;4.2;97.4
68873;BME280;55907;50.806;12.882;2023-12-20T03:44:57;968.4;;;4.2;97.4
68873;BME280;55907;50.806;12.882;2023-12-20T03:47:58;968.4;;;4.2;97.7
68873;BME280;55907;50.806;12.882;2023-12-20T03:50:59;968.3;;;4.2;97.8
68873;BME280;55907;50.806;12.882;2023-12-20T03:57:01;968.3;;;4.2;97.5
68873;BME280;55907;50.806;12.882;2023-12-20T04:00:02;968.4;;;4.2;97.8
68873;BME280;55907;50.806;12.882;2023-12-20T04:06:03;968.3;;;4.0;98.6
68873;BME280;55907;50.806;12.882;2023-12-20T04:09:04;968.4;;;3.9;99.2
68873;BME280;55907;50.806;12.882;2023-12-20T04:12:05;968.4;;;3.9;100.0
68873;BME280;55907;50.806;12.882;2023-12-20T04:15:06;968.4;;;3.8;100.0
68873;BME280;55907;50.806;12.882;2023-12-20T04:18:06;968.4;;;3.9;100.0
68873;BME280;55907;50.806;12.882;2023-12-20T04:21:07;968.4;;;3.9;100.0
68873;BME280;55907;50.806;12.882;2023-12-20T04:24:08;968.4;;;3.9;100.0
68873;BME280;55907;50.806;12.882;2023-12-20T04:33:10;968.4;;;3.9;100.0
68873;BME280;55907;50.806;12.882;2023-12-20T04:39:13;968.4;;;3.9;100.0
68873;BME280;55907;50.806;12.882;2023-12-20T04:42:13;968.4;;;3.9;100.0
68873;BME280;55907;50.806;12.882;2023-12-20T04:48:14;968.5;;;3.9;100.0
68873;BME280;55907;50.806;12.882;2023-12-20T04:51:15;968.5;;;3.9;100.0
68873;BME280;55907;50.806;12.882;2023-12-20T04:54:16;968.5;;;3.9;100.0
68873;BME280;55907;50.806;12.882;2023-12-20T04:57:17;968.6;;;3.9;100.0
68873;BME280;55907;50.806;12.882;2023-12-20T05:00:18;968.5;;;3.9;100.0
68873;BME280;55907;50.806;12.882;2023-12-20T05:03:18;968.5;;;4.0;100.0
68873;BME280;55907;50.806;12.882;2023-12-20T05:06:19;968.6;;;4.0;100.0
68873;BME280;55907;50.806;12.882;2023-12-20T05:12:21;968.6;;;4.0;100.0
68873;BME280;55907;50.806;12.882;2023-12-20T05:21:23;968.6;;;4.0;100.0
68873;BME280;55907;50.806;12.882;2023-12-20T05:24:24;968.6;;;4.1;100.0
68873;BME280;55907;50.806;12.882;2023-12-20T05:30:26;968.7;;;4.0;100.0
68873;BME280;55907;50.806;12.882;2023-12-20T05:48:31;968.8;;;4.0;100.0
68873;BME280;55907;50.806;12.882;2023-12-20T05:51:32;968.9;;;4.1;100.0
68873;BME280;55907;50.806;12.882;2023-12-20T05:54:32;968.9;;;4.0;100.0
68873;BME280;55907;50.806;12.882;2023-12-20T06:00:34;968.9;;;4.0;100.0
68873;BME280;55907;50.806;12.882;2023-12-20T06:03:35;968.9;;;4.0;100.0
68873;BME280;55907;50.806;12.882;2023-12-20T06:09:36;968.9;;;4.1;100.0
68873;BME280;55907;50.806;12.882;2023-12-20T06:12:37;968.9;;;4.1;100.0
68873;BME280;55907;50.806;12.882;2023-12-20T06:18:39;969.0;;;4.2;100.0
68873;BME280;55907;50.806;12.882;2023-12-20T06:21:40;969.1;;;4.2;100.0
68873;BME280;55907;50.806;12.882;2023-12-20T06:24:40;969.1;;;4.3;100.0
68873;BME280;55907;50.806;12.882;2023-12-20T06:27:41;969.1;;;4.4;100.0
68873;BME280;55907;50.806;12.882;2023-12-20T06:30:42;969.2;;;4.4;100.0
68873;BME280;55907;50.806;12.882;2023-12-20T06:36:44;969.2;;;4.4;100.0
68873;BME280;55907;50.806;12.882;2023-12-20T06:39:45;969.2;;;4.3;100.0
68873;BME280;55907;50.806;12.882;2023-12-20T06:42:46;969.2;;;4.3;100.0
68873;BME280;55907;50.806;12.882;2023-12-20T06:45:46;969.3;;;4.4;100.0
68873;BME280;55907;50.806;12.882;2023-12-20T06:48:47;969.3;;;4.3;100.0
68873;BME280;55907;50.806;12.882;2023-12-20T06:51:48;969.3;;;4.4;100.0
68873;BME280;55907;50.806;12.882;2023-12-20T06:54:49;969.4;;;4.3;100.0
68873;BME280;55907;50.806;12.882;2023-12-20T06:57:50;969.4;;;4.4;100.0
68873;BME280;55907;50.806;12.882;2023-12-20T07:03:51;969.5;;;4.3;100.0
68873;BME280;55907;50.806;12.882;2023-12-20T07:06:52;969.5;;;4.4;100.0
68873;BME280;55907;50.806;12.882;2023-12-20T07:09:53;969.4;;;4.5;100.0
68873;BME280;55907;50.806;12.882;2023-12-20T07:12:54;969.5;;;4.5;100.0
68873;BME280;55907;50.806;12.882;2023-12-20T07:15:54;969.5;;;4.5;100.0
68873;BME280;55907;50.806;12.882;2023-12-20T07:18:55;969.5;;;4.4;100.0
68873;BME280;55907;50.806;12.882;2023-12-20T07:21:56;969.6;;;4.5;100.0
68873;BME280;55907;50.806;12.882;2023-12-20T07:24:57;969.5;;;4.4;100.0
68873;BME280;55907;50.806;12.882;2023-12-20T07:27:58;969.6;;;4.4;100.0
68873;BME280;55907;50.806;12.882;2023-12-20T07:30:58;969.6;;;4.3;100.0
68873;BME280;55907;50.806;12.882;2023-12-20T07:33:59;969.7;;;4.3;100.0
68873;BME280;55907;50.806;12.882;2023-12-20T07:37:00;969.6;;;4.4;100.0
68873;BME280;55907;50.806;12.882;2023-12-20T07:40:01;969.6;;;4.4;100.0
68873;BME280;55907;50.806;12.882;2023-12-20T07:43:02;969.6;;;4.4;100.0
68873;BME280;55907;50.806;12.882;2023-12-20T07:46:04;969.6;;;4.4;100.0
68873;BME280;55907;50.806;12.882;2023-12-20T07:49:04;969.5;;;4.4;100.0
68873;BME280;55907;50.806;12.882;2023-12-20T07:52:05;969.4;;;4.4;100.0
68873;BME280;55907;50.806;12.882;2023-12-20T07:55:06;969.5;;;4.5;99.5
68873;BME280;55907;50.806;12.882;2023-12-20T07:58:06;969.6;;;4.4;99.4
68873;BME280;55907;50.806;12.882;2023-12-20T08:01:07;969.6;;;4.5;99.1
68873;BME280;55907;50.806;12.882;2023-12-20T08:10:09;969.6;;;4.6;98.5
68873;BME280;55907;50.806;12.882;2023-12-20T08:13:10;969.6;;;4.6;98.3
68873;BME280;55907;50.806;12.882;2023-12-20T08:16:11;969.6;;;4.7;98.5
68873;BME280;55907;50.806;12.882;2023-12-20T08:19:11;969.6;;;4.7;99.0
68873;BME280;55907;50.806;12.882;2023-12-20T08:22:12;969.6;;;4.8;98.9
68873;BME280;55907;50.806;12.882;2023-12-20T08:25:13;969.6;;;4.9;98.5
68873;BME280;55907;50.806;12.882;2023-12-20T08:28:14;969.7;;;4.8;98.7
68873;BME280;55907;50.806;12.882;2023-12-20T08:31:15;969.7;;;4.9;98.7
68873;BME280;55907;50.806;12.882;2023-12-20T08:34:16;969.7;;;4.9;98.9
68873;BME280;55907;50.806;12.882;2023-12-20T08:37:16;969.7;;;4.7;99.4
68873;BME280;55907;50.806;12.882;2023-12-20T08:40:17;969.7;;;4.7;100.0
68873;BME280;55907;50.806;12.882;2023-12-20T08:49:20;969.6;;;4.8;98.5
68873;BME280;55907;50.806;12.882;2023-12-20T08:52:20;969.7;;;4.9;97.6
68873;BME280;55907;50.806;12.882;2023-12-20T08:55:21;969.8;;;4.8;96.3
68873;BME280;55907;50.806;12.882;2023-12-20T08:58:22;969.9;;;4.9;95.8
68873;BME280;55907;50.806;12.882;2023-12-20T09:01:23;969.8;;;5.1;94.8
68873;BME280;55907;50.806;12.882;2023-12-20T09:04:23;969.8;;;5.8;90.7
68873;BME280;55907;50.806;12.882;2023-12-20T09:07:25;969.8;;;6.6;86.4
68873;BME280;55907;50.806;12.882;2023-12-20T09:10:25;969.8;;;6.7;84.0
68873;BME280;55907;50.806;12.882;2023-12-20T09:13:26;969.9;;;7.2;83.0
68873;BME280;55907;50.806;12.882;2023-12-20T09:16:27;969.8;;;7.2;81.0
68873;BME280;55907;50.806;12.882;2023-12-20T09:19:27;969.9;;;7.7;78.7
68873;BME280;55907;50.806;12.882;2023-12-20T09:22:28;969.9;;;8.5;74.5
68873;BME280;55907;50.806;12.882;2023-12-20T09:25:29;969.8;;;8.5;72.4
68873;BME280;55907;50.806;12.882;2023-12-20T09:28:30;969.8;;;7.6;75.6
68873;BME280;55907;50.806;12.882;2023-12-20T09:31:31;969.8;;;7.0;78.8
68873;BME280;55907;50.806;12.882;2023-12-20T09:34:31;969.7;;;6.6;81.3
68873;BME280;55907;50.806;12.882;2023-12-20T09:37:32;969.7;;;6.4;82.2
68873;BME280;55907;50.806;12.882;2023-12-20T09:40:34;969.7;;;6.1;82.8
68873;BME280;55907;50.806;12.882;2023-12-20T09:43:35;969.7;;;6.0;83.6
68873;BME280;55907;50.806;12.882;2023-12-20T09:46:37;969.6;;;6.0;83.3
68873;BME280;55907;50.806;12.882;2023-12-20T09:49:36;969.6;;;6.0;81.9
68873;BME280;55907;50.806;12.882;2023-12-20T09:52:38;969.7;;;6.1;82.4
68873;BME280;55907;50.806;12.882;2023-12-20T09:55:37;969.7;;;6.3;80.0
68873;BME280;55907;50.806;12.882;2023-12-20T09:58:38;969.7;;;6.2;81.0
68873;BME280;55907;50.806;12.882;2023-12-20T10:01:39;969.6;;;6.2;81.6
68873;BME280;55907;50.806;12.882;2023-12-20T10:04:45;969.6;;;5.9;81.4
68873;BME280;55907;50.806;12.882;2023-12-20T10:07:40;969.5;;;5.8;81.6
68873;BME280;55907;50.806;12.882;2023-12-20T10:10:41;969.4;;;5.8;82.5
68873;BME280;55907;50.806;12.882;2023-12-20T10:13:42;969.3;;;5.6;82.3
68873;BME280;55907;50.806;12.882;2023-12-20T10:16:42;969.2;;;5.6;82.7
68873;BME280;55907;50.806;12.882;2023-12-20T10:19:43;969.2;;;5.6;82.9
68873;BME280;55907;50.806;12.882;2023-12-20T10:25:55;969.2;;;5.7;82.8
68873;BME280;55907;50.806;12.882;2023-12-20T10:28:46;969.1;;;5.6;82.3
68873;BME280;55907;50.806;12.882;2023-12-20T10:31:47;969.2;;;5.6;82.6
68873;BME280;55907;50.806;12.882;2023-12-20T10:34:47;969.1;;;5.7;81.7
68873;BME280;55907;50.806;12.882;2023-12-20T10:37:49;969.0;;;5.6;81.8
68873;BME280;55907;50.806;12.882;2023-12-20T10:40:54;969.0;;;5.6;81.9
68873;BME280;55907;50.806;12.882;2023-12-20T10:43:50;969.1;;;5.6;81.9
68873;BME280;55907;50.806;12.882;2023-12-20T10:46:51;969.0;;;5.6;81.7
68873;BME280;55907;50.806;12.882;2023-12-20T10:52:54;968.8;;;5.6;81.0
68873;BME280;55907;50.806;12.882;2023-12-20T10:55:55;968.8;;;5.6;80.7
68873;BME280;55907;50.806;12.882;2023-12-20T10:58:55;968.9;;;6.1;79.4
68873;BME280;55907;50.806;12.882;2023-12-20T11:01:55;968.9;;;6.9;74.8
68873;BME280;55907;50.806;12.882;2023-12-20T11:04:59;968.9;;;6.8;73.4
68873;BME280;55907;50.806;12.882;2023-12-20T11:08:00;968.9;;;6.6;74.9
68873;BME280;55907;50.806;12.882;2023-12-20T11:11:02;968.8;;;6.3;76.0
68873;BME280;55907;50.806;12.882;2023-12-20T11:14:00;968.8;;;6.2;76.7
68873;BME280;55907;50.806;12.882;2023-12-20T11:17:07;968.9;;;6.3;77.2
68873;BME280;55907;50.806;12.882;2023-12-20T11:20:08;968.9;;;6.3;76.1
68873;BME280;55907;50.806;12.882;2023-12-20T11:23:00;968.7;;;6.3;75.6
68873;BME280;55907;50.806;12.882;2023-12-20T11:26:02;968.9;;;6.3;75.7
68873;BME280;55907;50.806;12.882;2023-12-20T11:35:18;968.8;;;6.1;75.5
68873;BME280;55907;50.806;12.882;2023-12-20T11:38:07;968.9;;;6.1;75.9
68873;BME280;55907;50.806;12.882;2023-12-20T11:41:06;968.8;;;6.2;76.5
68873;BME280;55907;50.806;12.882;2023-12-20T11:44:06;968.7;;;6.2;76.2
68873;BME280;55907;50.806;12.882;2023-12-20T11:47:07;968.7;;;6.0;76.1
68873;BME280;55907;50.806;12.882;2023-12-20T11:50:08;968.6;;;6.0;76.4
68873;BME280;55907;50.806;12.882;2023-12-20T11:53:10;968.6;;;6.0;75.2
68873;BME280;55907;50.806;12.882;2023-12-20T11:56:09;968.7;;;6.2;75.1
68873;BME280;55907;50.806;12.882;2023-12-20T11:59:10;968.5;;;6.3;75.0
68873;BME280;55907;50.806;12.882;2023-12-20T12:02:12;968.4;;;6.4;73.6
68873;BME280;55907;50.806;12.882;2023-12-20T12:05:11;968.5;;;6.4;73.5
68873;BME280;55907;50.806;12.882;2023-12-20T12:08:12;968.5;;;6.6;73.4
68873;BME280;55907;50.806;12.882;2023-12-20T12:11:13;968.5;;;6.8;73.5
68873;BME280;55907;50.806;12.882;2023-12-20T12:14:14;968.4;;;6.9;73.4
68873;BME280;55907;50.806;12.882;2023-12-20T12:17:15;968.3;;;6.8;72.7
68873;BME280;55907;50.806;12.882;2023-12-20T12:20:19;968.2;;;6.8;73.6
68873;BME280;55907;50.806;12.882;2023-12-20T12:23:22;968.3;;;6.7;73.1
68873;BME280;55907;50.806;12.882;2023-12-20T12:26:17;968.1;;;6.6;74.0
68873;BME280;55907;50.806;12.882;2023-12-20T12:29:18;968.1;;;6.5;73.8
68873;BME280;55907;50.806;12.882;2023-12-20T12:32:19;968.0;;;6.4;73.5
68873;BME280;55907;50.806;12.882;2023-12-20T12:35:20;968.0;;;6.4;74.0
68873;BME280;55907;50.806;12.882;2023-12-20T12:41:21;967.9;;;6.3;74.3
68873;BME280;55907;50.806;12.882;2023-12-20T12:44:22;967.9;;;6.4;74.5
68873;BME280;55907;50.806;12.882;2023-12-20T12:47:23;967.7;;;6.3;73.5
68873;BME280;55907;50.806;12.882;2023-12-20T12:50:23;967.7;;;6.3;73.5
68873;BME280;55907;50.806;12.882;2023-12-20T12:53:25;967.7;;;6.4;73.4
68873;BME280;55907;50.806;12.882;2023-12-20T12:56:25;967.5;;;6.4;74.0
68873;BME280;55907;50.806;12.882;2023-12-20T12:59:26;967.5;;;6.4;73.4
68873;BME280;55907;50.806;12.882;2023-12-20T13:02:27;967.6;;;6.5;73.2
68873;BME280;55907;50.806;12.882;2023-12-20T13:05:28;967.5;;;6.6;72.5
68873;BME280;55907;50.806;12.882;2023-12-20T13:08:28;967.5;;;6.6;72.3
68873;BME280;55907;50.806;12.882;2023-12-20T13:11:29;967.5;;;6.6;72.4
68873;BME280;55907;50.806;12.882;2023-12-20T13:14:31;967.4;;;6.5;72.6
68873;BME280;55907;50.806;12.882;2023-12-20T13:17:31;967.5;;;6.5;72.8
68873;BME280;55907;50.806;12.882;2023-12-20T13:23:32;967.3;;;6.7;72.4
68873;BME280;55907;50.806;12.882;2023-12-20T13:26:33;967.2;;;6.6;72.2
68873;BME280;55907;50.806;12.882;2023-12-20T13:29:34;967.3;;;6.7;71.9
68873;BME280;55907;50.806;12.882;2023-12-20T13:32:35;967.3;;;6.8;71.3
68873;BME280;55907;50.806;12.882;2023-12-20T13:35:35;967.2;;;6.8;70.7
68873;BME280;55907;50.806;12.882;2023-12-20T13:38:36;967.1;;;6.8;70.3
68873;BME280;55907;50.806;12.882;2023-12-20T13:41:37;967.1;;;6.7;71.1
68873;BME280;55907;50.806;12.882;2023-12-20T13:44:38;967.1;;;6.7;70.8
68873;BME280;55907;50.806;12.882;2023-12-20T13:47:39;967.0;;;6.5;71.2
68873;BME280;55907;50.806;12.882;2023-12-20T13:53:40;967.1;;;6.4;71.5
68873;BME280;55907;50.806;12.882;2023-12-20T13:56:41;967.0;;;6.3;72.3
68873;BME280;55907;50.806;12.882;2023-12-20T13:59:42;967.0;;;6.3;72.3
68873;BME280;55907;50.806;12.882;2023-12-20T14:02:43;967.1;;;6.3;72.9
68873;BME280;55907;50.806;12.882;2023-12-20T14:05:44;967.2;;;6.2;73.1
68873;BME280;55907;50.806;12.882;2023-12-20T14:08:44;967.1;;;6.1;73.9
68873;BME280;55907;50.806;12.882;2023-12-20T14:11:45;967.2;;;6.1;74.2
68873;BME280;55907;50.806;12.882;2023-12-20T14:14:46;967.2;;;5.9;74.5
68873;BME280;55907;50.806;12.882;2023-12-20T14:17:47;967.2;;;5.9;75.0
68873;BME280;55907;50.806;12.882;2023-12-20T14:20:48;967.1;;;5.8;75.5
68873;BME280;55907;50.806;12.882;2023-12-20T14:23:48;967.1;;;5.8;75.5
68873;BME280;55907;50.806;12.882;2023-12-20T14:26:49;967.1;;;5.8;76.1
68873;BME280;55907;50.806;12.882;2023-12-20T14:29:50;967.0;;;5.7;76.3
68873;BME280;55907;50.806;12.882;2023-12-20T14:32:51;967.0;;;5.6;76.4
68873;BME280;55907;50.806;12.882;2023-12-20T14:35:51;967.0;;;5.5;76.5
68873;BME280;55907;50.806;12.882;2023-12-20T14:38:52;966.9;;;5.5;76.7
68873;BME280;55907;50.806;12.882;2023-12-20T14:41:53;967.0;;;5.5;77.0
68873;BME280;55907;50.806;12.882;2023-12-20T14:44:54;967.0;;;5.5;77.1
68873;BME280;55907;50.806;12.882;2023-12-20T14:47:55;967.0;;;5.4;77.4
68873;BME280;55907;50.806;12.882;2023-12-20T14:50:56;967.1;;;5.3;77.4
68873;BME280;55907;50.806;12.882;2023-12-20T14:53:56;967.0;;;5.4;77.9
68873;BME280;55907;50.806;12.882;2023-12-20T14:56:59;967.2;;;5.4;78.1
68873;BME280;55907;50.806;12.882;2023-12-20T14:59:58;967.1;;;5.4;78.0
68873;BME280;55907;50.806;12.882;2023-12-20T15:06:00;967.1;;;5.2;78.6
68873;BME280;55907;50.806;12.882;2023-12-20T15:09:01;967.0;;;5.2;78.8
68873;BME280;55907;50.806;12.882;2023-12-20T15:12:01;967.1;;;5.2;79.3
68873;BME280;55907;50.806;12.882;2023-12-20T15:15:02;967.2;;;5.3;79.1
68873;BME280;55907;50.806;12.882;2023-12-20T15:18:03;967.1;;;5.2;79.6
68873;BME280;55907;50.806;12.882;2023-12-20T15:21:04;967.1;;;5.1;80.5
68873;BME280;55907;50.806;12.882;2023-12-20T15:24:05;967.0;;;5.1;80.6
68873;BME280;55907;50.806;12.882;2023-12-20T15:27:06;967.1;;;5.0;80.9
68873;BME280;55907;50.806;12.882;2023-12-20T15:30:07;967.1;;;5.0;81.5
68873;BME280;55907;50.806;12.882;2023-12-20T15:33:07;967.1;;;5.0;81.4
68873;BME280;55907;50.806;12.882;2023-12-20T15:36:08;967.1;;;5.0;81.6
68873;BME280;55907;50.806;12.882;2023-12-20T15:39:09;967.1;;;5.0;81.6
68873;BME280;55907;50.806;12.882;2023-12-20T15:42:09;967.1;;;4.9;81.6
68873;BME280;55907;50.806;12.882;2023-12-20T15:45:10;967.1;;;5.0;81.5
68873;BME280;55907;50.806;12.882;2023-12-20T15:48:11;967.0;;;4.9;81.6
68873;BME280;55907;50.806;12.882;2023-12-20T15:51:13;966.7;;;4.9;81.9
68873;BME280;55907;50.806;12.882;2023-12-20T15:54:13;967.0;;;4.9;81.6
68873;BME280;55907;50.806;12.882;2023-12-20T15:57:13;966.8;;;4.9;81.7
68873;BME280;55907;50.806;12.882;2023-12-20T16:00:15;966.9;;;4.9;81.5
68873;BME280;55907;50.806;12.882;2023-12-20T16:03:15;966.9;;;5.0;81.8
68873;BME280;55907;50.806;12.882;2023-12-20T16:06:16;967.0;;;5.0;81.7
68873;BME280;55907;50.806;12.882;2023-12-20T16:09:17;966.9;;;4.9;81.7
68873;BME280;55907;50.806;12.882;2023-12-20T16:12:17;966.9;;;4.9;82.1
68873;BME280;55907;50.806;12.882;2023-12-20T16:15:18;966.9;;;4.9;82.2
68873;BME280;55907;50.806;12.882;2023-12-20T16:18:19;966.8;;;4.9;82.3
68873;BME280;55907;50.806;12.882;2023-12-20T16:21:20;967.0;;;4.9;82.1
68873;BME280;55907;50.806;12.882;2023-12-20T16:24:21;967.1;;;5.0;82.2
68873;BME280;55907;50.806;12.882;2023-12-20T16:27:21;967.1;;;5.0;82.3
68873;BME280;55907;50.806;12.882;2023-12-20T16:30:22;967.1;;;4.9;82.5
68873;BME280;55907;50.806;12.882;2023-12-20T16:33:23;967.0;;;5.0;82.7
68873;BME280;55907;50.806;12.882;2023-12-20T16:36:24;967.0;;;5.0;82.7
68873;BME280;55907;50.806;12.882;2023-12-20T16:39:25;966.9;;;5.0;82.3
68873;BME280;55907;50.806;12.882;2023-12-20T16:42:26;967.0;;;5.0;82.5
68873;BME280;55907;50.806;12.882;2023-12-20T16:45:26;966.8;;;5.1;82.6
68873;BME280;55907;50.806;12.882;2023-12-20T16:48:28;966.9;;;5.0;82.8
68873;BME280;55907;50.806;12.882;2023-12-20T16:51:28;967.0;;;5.1;82.9
68873;BME280;55907;50.806;12.882;2023-12-20T16:54:29;967.0;;;5.1;82.6
68873;BME280;55907;50.806;12.882;2023-12-20T16:57:30;967.0;;;5.2;82.4
68873;BME280;55907;50.806;12.882;2023-12-20T17:00:30;967.1;;;5.2;82.3
68873;BME280;55907;50.806;12.882;2023-12-20T17:03:31;967.1;;;5.2;82.4
68873;BME280;55907;50.806;12.882;2023-12-20T17:06:32;967.0;;;5.2;82.1
68873;BME280;55907;50.806;12.882;2023-12-20T17:09:33;967.1;;;5.2;82.1
68873;BME280;55907;50.806;12.882;2023-12-20T17:15:35;967.0;;;5.2;82.0
68873;BME280;55907;50.806;12.882;2023-12-20T17:18:35;967.1;;;5.2;82.1
68873;BME280;55907;50.806;12.882;2023-12-20T17:24:37;967.1;;;5.3;81.9
68873;BME280;55907;50.806;12.882;2023-12-20T17:27:38;967.1;;;5.2;82.2
68873;BME280;55907;50.806;12.882;2023-12-20T17:30:39;967.0;;;5.2;82.8
68873;BME280;55907;50.806;12.882;2023-12-20T17:33:39;967.0;;;5.2;82.6
68873;BME280;55907;50.806;12.882;2023-12-20T17:36:40;967.1;;;5.2;82.4
68873;BME280;55907;50.806;12.882;2023-12-20T17:39:41;967.1;;;5.2;82.6
68873;BME280;55907;50.806;12.882;2023-12-20T17:42:43;967.0;;;5.2;82.9
68873;BME280;55907;50.806;12.882;2023-12-20T17:45:43;967.1;;;5.3;82.5
68873;BME280;55907;50.806;12.882;2023-12-20T17:48:43;967.2;;;5.3;82.3
68873;BME280;55907;50.806;12.882;2023-12-20T17:51:44;967.1;;;5.4;82.3
68873;BME280;55907;50.806;12.882;2023-12-20T17:54:45;967.1;;;5.4;82.5
68873;BME280;55907;50.806;12.882;2023-12-20T17:57:46;967.3;;;5.3;82.7
68873;BME280;55907;50.806;12.882;2023-12-20T18:00:47;967.1;;;5.3;82.5
68873;BME280;55907;50.806;12.882;2023-12-20T18:03:47;967.2;;;5.2;82.5
68873;BME280;55907;50.806;12.882;2023-12-20T18:06:48;967.1;;;5.2;82.4
68873;BME280;55907;50.806;12.882;2023-12-20T18:09:49;967.2;;;5.3;82.2
68873;BME280;55907;50.806;12.882;2023-12-20T18:12:50;967.3;;;5.3;82.3
68873;BME280;55907;50.806;12.882;2023-12-20T18:15:51;967.1;;;5.2;82.2
68873;BME280;55907;50.806;12.882;2023-12-20T18:18:51;967.2;;;5.2;82.3
68873;BME280;55907;50.806;12.882;2023-12-20T18:21:52;967.2;;;5.2;82.3
68873;BME280;55907;50.806;12.882;2023-12-20T18:24:53;967.2;;;5.2;82.4
68873;BME280;55907;50.806;12.882;2023-12-20T18:27:54;967.3;;;5.2;82.4
68873;BME280;55907;50.806;12.882;2023-12-20T18:33:56;967.3;;;5.2;82.5
68873;BME280;55907;50.806;12.882;2023-12-20T18:36:56;967.3;;;5.1;82.6
68873;BME280;55907;50.806;12.882;2023-12-20T18:39:57;967.2;;;5.0;83.2
68873;BME280;55907;50.806;12.882;2023-12-20T18:42:58;967.2;;;5.0;83.6
68873;BME280;55907;50.806;12.882;2023-12-20T18:45:59;967.2;;;5.0;83.7
68873;BME280;55907;50.806;12.882;2023-12-20T18:49:00;967.2;;;5.0;83.4
68873;BME280;55907;50.806;12.882;2023-12-20T18:52:00;967.2;;;5.0;83.5
68873;BME280;55907;50.806;12.882;2023-12-20T18:55:01;967.2;;;5.0;83.5
68873;BME280;55907;50.806;12.882;2023-12-20T18:58:02;967.3;;;5.1;83.4
68873;BME280;55907;50.806;12.882;2023-12-20T19:01:03;967.2;;;5.0;83.4
68873;BME280;55907;50.806;12.882;2023-12-20T19:04:04;967.2;;;5.0;83.5
68873;BME280;55907;50.806;12.882;2023-12-20T19:07:04;967.1;;;4.9;83.7
68873;BME280;55907;50.806;12.882;2023-12-20T19:10:06;967.0;;;4.9;83.4
68873;BME280;55907;50.806;12.882;2023-12-20T19:13:06;967.1;;;5.0;83.1
68873;BME280;55907;50.806;12.882;2023-12-20T19:16:07;967.1;;;5.0;83.3
68873;BME280;55907;50.806;12.882;2023-12-20T19:19:08;967.1;;;5.0;83.3
68873;BME280;55907;50.806;12.882;2023-12-20T19:22:08;967.1;;;5.0;83.5
68873;BME280;55907;50.806;12.882;2023-12-20T19:28:10;967.0;;;5.0;83.3
68873;BME280;55907;50.806;12.882;2023-12-20T19:31:11;967.0;;;4.9;83.0
68873;BME280;55907;50.806;12.882;2023-12-20T19:37:12;967.0;;;4.9;83.6
68873;BME280;55907;50.806;12.882;2023-12-20T19:40:13;966.8;;;4.8;83.8
68873;BME280;55907;50.806;12.882;2023-12-20T19:43:14;967.0;;;4.8;84.0
68873;BME280;55907;50.806;12.882;2023-12-20T19:49:16;966.8;;;4.8;84.1
68873;BME280;55907;50.806;12.882;2023-12-20T19:52:17;966.8;;;4.8;84.4
68873;BME280;55907;50.806;12.882;2023-12-20T19:55:17;966.7;;;4.8;84.2
68873;BME280;55907;50.806;12.882;2023-12-20T19:58:18;966.8;;;4.8;83.9
68873;BME280;55907;50.806;12.882;2023-12-20T20:01:19;966.7;;;4.8;83.7